MMCU/CUU METAR and TAF weather

Enter ICAO airport designator
Station Type Date Time Source
MMCU METAR 2020/01/27 16:40 UTC NOAA

MMCU 271640Z 23004KT 10SM SKC 16/03 A3014


Station Type Date Time Source
MMCU Decoded METAR 2020/01/27 16:40 UTC NOAA

Chihuahua International Airport, Mexico (MMCU) 28-42N 105-58W
Jan 27, 2020 - 11:40 AM EST / 2020.01.27 1640 UTC
Wind: from the SW (230 degrees) at 5 MPH (4 KT):0
Visibility: 10 mile(s):0
Sky conditions: clear
Temperature: 60 F (16 C)
Dew Point: 37 F (3 C)
Relative Humidity: 41%
Pressure (altimeter): 30.14 in. Hg (1020 hPa)
ob: MMCU 271640Z 23004KT 10SM SKC 16/03 A3014
cycle: 16

Station Type Date Time Source
MMCU TAF 2020/01/27 18:57 UTC NOAA

TAF MMCU 271649Z 2718/2818 25015KT P6SM SKC
BECMG 2801/2802 00000KT
FM281500 29012KT P6SM SKC

Example: see airport list